sensor_id;sensor_type;location;lat;lon;timestamp;pressure;altitude;pressure_sealevel;temperature;humidity
58070;BME280;43863;52.256;21.048;2022-08-07T00:04:57;101401.50;;;17.27;67.34
58070;BME280;43863;52.256;21.048;2022-08-07T00:07:25;101395.28;;;17.20;67.22
58070;BME280;43863;52.256;21.048;2022-08-07T00:13:02;101409.56;;;16.99;67.42
58070;BME280;43863;52.256;21.048;2022-08-07T00:25:24;101414.06;;;16.77;67.29
58070;BME280;43863;52.256;21.048;2022-08-07T00:27:53;101411.00;;;16.80;67.48
58070;BME280;43863;52.256;21.048;2022-08-07T00:30:25;101421.00;;;16.86;67.33
58070;BME280;43863;52.256;21.048;2022-08-07T00:32:59;101422.44;;;16.89;67.11
58070;BME280;43863;52.256;21.048;2022-08-07T00:38:40;101434.53;;;16.78;67.41
58070;BME280;43863;52.256;21.048;2022-08-07T00:41:08;101431.84;;;16.78;67.51
58070;BME280;43863;52.256;21.048;2022-08-07T00:53:10;101428.22;;;17.07;67.03
58070;BME280;43863;52.256;21.048;2022-08-07T00:59:26;101428.47;;;16.91;66.88
58070;BME280;43863;52.256;21.048;2022-08-07T01:02:27;101427.38;;;16.85;66.88
58070;BME280;43863;52.256;21.048;2022-08-07T01:04:57;101432.13;;;16.83;67.01
58070;BME280;43863;52.256;21.048;2022-08-07T01:07:27;101434.44;;;16.86;67.02
58070;BME280;43863;52.256;21.048;2022-08-07T01:09:57;101433.03;;;16.75;66.97
58070;BME280;43863;52.256;21.048;2022-08-07T01:12:37;101434.06;;;16.74;67.16
58070;BME280;43863;52.256;21.048;2022-08-07T01:15:22;101423.97;;;16.76;66.83
58070;BME280;43863;52.256;21.048;2022-08-07T01:18:12;101430.19;;;16.77;67.17
58070;BME280;43863;52.256;21.048;2022-08-07T01:20:52;101435.16;;;16.80;66.85
58070;BME280;43863;52.256;21.048;2022-08-07T01:23:28;101425.28;;;16.80;66.49
58070;BME280;43863;52.256;21.048;2022-08-07T01:26:09;101430.44;;;16.82;66.57
58070;BME280;43863;52.256;21.048;2022-08-07T01:28:49;101429.63;;;16.81;66.38
58070;BME280;43863;52.256;21.048;2022-08-07T01:31:22;101419.72;;;16.82;66.63
58070;BME280;43863;52.256;21.048;2022-08-07T01:34:11;101422.22;;;16.83;66.61
58070;BME280;43863;52.256;21.048;2022-08-07T01:36:48;101431.34;;;16.89;66.41
58070;BME280;43863;52.256;21.048;2022-08-07T01:39:27;101423.88;;;16.85;66.54
58070;BME280;43863;52.256;21.048;2022-08-07T01:42:13;101432.31;;;16.81;66.46
58070;BME280;43863;52.256;21.048;2022-08-07T01:45:04;101428.97;;;16.79;66.70
58070;BME280;43863;52.256;21.048;2022-08-07T01:47:46;101439.44;;;16.74;66.70
58070;BME280;43863;52.256;21.048;2022-08-07T01:50:36;101432.59;;;16.72;66.60
58070;BME280;43863;52.256;21.048;2022-08-07T01:53:12;101431.94;;;16.70;66.74
58070;BME280;43863;52.256;21.048;2022-08-07T01:56:01;101432.59;;;16.72;66.83
58070;BME280;43863;52.256;21.048;2022-08-07T01:58:31;101418.72;;;16.68;66.46
58070;BME280;43863;52.256;21.048;2022-08-07T02:01:41;101422.81;;;16.64;66.70
58070;BME280;43863;52.256;21.048;2022-08-07T02:05:12;101424.75;;;16.55;67.07
58070;BME280;43863;52.256;21.048;2022-08-07T02:08:08;101424.97;;;16.54;66.67
58070;BME280;43863;52.256;21.048;2022-08-07T02:10:44;101427.34;;;16.64;66.87
58070;BME280;43863;52.256;21.048;2022-08-07T02:13:48;101424.91;;;16.69;66.59
58070;BME280;43863;52.256;21.048;2022-08-07T02:16:28;101418.53;;;16.70;66.72
58070;BME280;43863;52.256;21.048;2022-08-07T02:19:05;101421.22;;;16.70;67.00
58070;BME280;43863;52.256;21.048;2022-08-07T02:21:55;101424.28;;;16.67;66.53
58070;BME280;43863;52.256;21.048;2022-08-07T02:24:27;101432.31;;;16.67;66.77
58070;BME280;43863;52.256;21.048;2022-08-07T02:26:59;101415.56;;;16.65;66.99
58070;BME280;43863;52.256;21.048;2022-08-07T02:29:32;101416.41;;;16.65;66.96
58070;BME280;43863;52.256;21.048;2022-08-07T02:32:21;101419.28;;;16.64;66.91
58070;BME280;43863;52.256;21.048;2022-08-07T02:34:56;101426.31;;;16.65;66.86
58070;BME280;43863;52.256;21.048;2022-08-07T02:37:56;101420.50;;;16.61;66.92
58070;BME280;43863;52.256;21.048;2022-08-07T02:40:30;101421.91;;;16.57;67.05
58070;BME280;43863;52.256;21.048;2022-08-07T02:43:02;101420.59;;;16.53;67.17
58070;BME280;43863;52.256;21.048;2022-08-07T02:46:00;101420.22;;;16.56;67.31
58070;BME280;43863;52.256;21.048;2022-08-07T02:48:32;101430.50;;;16.52;67.24
58070;BME280;43863;52.256;21.048;2022-08-07T02:51:10;101427.66;;;16.54;67.35
58070;BME280;43863;52.256;21.048;2022-08-07T02:54:01;101430.72;;;16.51;67.28
58070;BME280;43863;52.256;21.048;2022-08-07T02:56:31;101432.38;;;16.52;67.25
58070;BME280;43863;52.256;21.048;2022-08-07T02:59:03;101426.56;;;16.48;67.52
58070;BME280;43863;52.256;21.048;2022-08-07T03:01:33;101429.03;;;16.50;67.61
58070;BME280;43863;52.256;21.048;2022-08-07T03:04:14;101431.09;;;16.48;67.62
58070;BME280;43863;52.256;21.048;2022-08-07T03:06:44;101434.78;;;16.47;67.43
58070;BME280;43863;52.256;21.048;2022-08-07T03:09:17;101433.13;;;16.46;67.58
58070;BME280;43863;52.256;21.048;2022-08-07T03:12:07;101446.91;;;16.43;67.66
58070;BME280;43863;52.256;21.048;2022-08-07T03:14:50;101432.47;;;16.44;67.56
58070;BME280;43863;52.256;21.048;2022-08-07T03:17:21;101435.53;;;16.41;67.47
58070;BME280;43863;52.256;21.048;2022-08-07T03:19:53;101441.84;;;16.33;67.63
58070;BME280;43863;52.256;21.048;2022-08-07T03:22:25;101438.97;;;16.34;67.57
58070;BME280;43863;52.256;21.048;2022-08-07T03:24:58;101438.78;;;16.36;67.54
58070;BME280;43863;52.256;21.048;2022-08-07T03:27:32;101437.94;;;16.35;67.92
58070;BME280;43863;52.256;21.048;2022-08-07T03:30:21;101437.75;;;16.37;67.90
58070;BME280;43863;52.256;21.048;2022-08-07T03:32:53;101439.78;;;16.35;67.72
58070;BME280;43863;52.256;21.048;2022-08-07T03:35:30;101434.81;;;16.32;67.50
58070;BME280;43863;52.256;21.048;2022-08-07T03:38:43;101434.69;;;16.40;67.49
58070;BME280;43863;52.256;21.048;2022-08-07T03:41:14;101432.84;;;16.41;67.34
58070;BME280;43863;52.256;21.048;2022-08-07T03:43:42;101440.34;;;16.45;66.89
58070;BME280;43863;52.256;21.048;2022-08-07T03:46:29;101447.34;;;16.46;66.82
58070;BME280;43863;52.256;21.048;2022-08-07T03:49:03;101440.59;;;16.50;66.77
58070;BME280;43863;52.256;21.048;2022-08-07T03:51:38;101448.91;;;16.55;66.83
58070;BME280;43863;52.256;21.048;2022-08-07T03:54:23;101443.38;;;16.57;66.68
58070;BME280;43863;52.256;21.048;2022-08-07T03:57:37;101449.44;;;16.66;66.25
58070;BME280;43863;52.256;21.048;2022-08-07T04:00:32;101442.06;;;16.53;66.48
58070;BME280;43863;52.256;21.048;2022-08-07T04:03:04;101447.91;;;16.56;66.42
58070;BME280;43863;52.256;21.048;2022-08-07T04:05:39;101451.94;;;16.67;66.25
58070;BME280;43863;52.256;21.048;2022-08-07T04:08:17;101457.47;;;16.80;65.68
58070;BME280;43863;52.256;21.048;2022-08-07T04:10:51;101450.97;;;16.90;65.70
58070;BME280;43863;52.256;21.048;2022-08-07T04:13:41;101456.22;;;16.98;65.63
58070;BME280;43863;52.256;21.048;2022-08-07T04:16:33;101460.59;;;17.05;65.22
58070;BME280;43863;52.256;21.048;2022-08-07T04:19:03;101455.28;;;17.12;65.12
58070;BME280;43863;52.256;21.048;2022-08-07T04:22:17;101461.19;;;17.22;64.75
58070;BME280;43863;52.256;21.048;2022-08-07T04:24:49;101462.06;;;17.29;64.49
58070;BME280;43863;52.256;21.048;2022-08-07T04:27:45;101459.06;;;17.39;64.34
58070;BME280;43863;52.256;21.048;2022-08-07T04:30:33;101460.59;;;17.48;63.82
58070;BME280;43863;52.256;21.048;2022-08-07T04:33:27;101463.97;;;17.57;63.77
58070;BME280;43863;52.256;21.048;2022-08-07T04:35:58;101459.06;;;17.67;63.36
58070;BME280;43863;52.256;21.048;2022-08-07T04:38:34;101471.53;;;17.75;63.24
58070;BME280;43863;52.256;21.048;2022-08-07T04:41:03;101472.25;;;17.84;63.19
58070;BME280;43863;52.256;21.048;2022-08-07T04:43:41;101473.47;;;17.81;62.76
58070;BME280;43863;52.256;21.048;2022-08-07T04:46:41;101476.97;;;17.82;62.55
58070;BME280;43863;52.256;21.048;2022-08-07T04:49:41;101480.31;;;17.84;62.45
58070;BME280;43863;52.256;21.048;2022-08-07T04:52:32;101472.47;;;17.89;62.29
58070;BME280;43863;52.256;21.048;2022-08-07T04:55:15;101482.88;;;17.99;61.95
58070;BME280;43863;52.256;21.048;2022-08-07T05:04:19;101501.91;;;18.04;61.65
58070;BME280;43863;52.256;21.048;2022-08-07T05:07:12;101499.59;;;17.94;61.79
58070;BME280;43863;52.256;21.048;2022-08-07T05:10:01;101504.66;;;17.82;62.26
58070;BME280;43863;52.256;21.048;2022-08-07T05:12:51;101508.28;;;17.96;61.84
58070;BME280;43863;52.256;21.048;2022-08-07T05:15:32;101507.53;;;18.09;61.74
58070;BME280;43863;52.256;21.048;2022-08-07T05:20:53;101512.41;;;18.33;60.66
58070;BME280;43863;52.256;21.048;2022-08-07T05:23:50;101520.97;;;18.44;60.70
58070;BME280;43863;52.256;21.048;2022-08-07T05:26:23;101515.09;;;18.33;60.44
58070;BME280;43863;52.256;21.048;2022-08-07T05:29:07;101521.16;;;18.42;59.72
58070;BME280;43863;52.256;21.048;2022-08-07T05:31:39;101518.88;;;18.39;59.09
58070;BME280;43863;52.256;21.048;2022-08-07T05:34:21;101522.03;;;18.49;59.14
58070;BME280;43863;52.256;21.048;2022-08-07T05:36:55;101514.63;;;18.64;58.81
58070;BME280;43863;52.256;21.048;2022-08-07T05:39:32;101523.13;;;18.68;59.01
58070;BME280;43863;52.256;21.048;2022-08-07T05:42:47;101521.69;;;18.72;58.50
58070;BME280;43863;52.256;21.048;2022-08-07T05:45:52;101523.34;;;18.67;58.05
58070;BME280;43863;52.256;21.048;2022-08-07T05:48:39;101519.22;;;18.71;58.19
58070;BME280;43863;52.256;21.048;2022-08-07T05:51:29;101518.84;;;18.80;57.91
58070;BME280;43863;52.256;21.048;2022-08-07T05:54:44;101527.00;;;19.14;58.07
58070;BME280;43863;52.256;21.048;2022-08-07T05:57:25;101534.91;;;19.28;57.96
58070;BME280;43863;52.256;21.048;2022-08-07T06:00:02;101520.19;;;19.31;56.81
58070;BME280;43863;52.256;21.048;2022-08-07T06:02:47;101516.28;;;19.40;55.96
58070;BME280;43863;52.256;21.048;2022-08-07T06:05:19;101516.72;;;19.50;55.99
58070;BME280;43863;52.256;21.048;2022-08-07T06:07:59;101519.81;;;19.61;55.28
58070;BME280;43863;52.256;21.048;2022-08-07T06:10:49;101521.09;;;19.71;54.64
58070;BME280;43863;52.256;21.048;2022-08-07T06:13:21;101519.84;;;19.67;53.79
58070;BME280;43863;52.256;21.048;2022-08-07T06:16:09;101524.63;;;19.65;52.63
58070;BME280;43863;52.256;21.048;2022-08-07T06:18:42;101527.50;;;19.44;52.31
58070;BME280;43863;52.256;21.048;2022-08-07T06:21:24;101510.88;;;19.33;52.28
58070;BME280;43863;52.256;21.048;2022-08-07T06:24:13;101525.63;;;19.44;52.21
58070;BME280;43863;52.256;21.048;2022-08-07T06:27:02;101521.88;;;19.52;51.57
58070;BME280;43863;52.256;21.048;2022-08-07T06:29:33;101522.75;;;19.66;51.60
58070;BME280;43863;52.256;21.048;2022-08-07T06:32:06;101526.91;;;19.68;50.99
58070;BME280;43863;52.256;21.048;2022-08-07T06:34:34;101527.06;;;19.60;51.57
58070;BME280;43863;52.256;21.048;2022-08-07T06:37:11;101526.69;;;19.76;51.26
58070;BME280;43863;52.256;21.048;2022-08-07T06:39:44;101523.97;;;19.90;50.76
58070;BME280;43863;52.256;21.048;2022-08-07T06:42:33;101531.88;;;19.91;51.03
58070;BME280;43863;52.256;21.048;2022-08-07T06:45:28;101529.34;;;20.03;50.27
58070;BME280;43863;52.256;21.048;2022-08-07T06:48:00;101527.91;;;19.87;50.41
58070;BME280;43863;52.256;21.048;2022-08-07T06:50:38;101535.19;;;19.80;50.36
58070;BME280;43863;52.256;21.048;2022-08-07T06:53:18;101536.84;;;19.81;50.70
58070;BME280;43863;52.256;21.048;2022-08-07T06:56:09;101532.50;;;19.73;50.67
58070;BME280;43863;52.256;21.048;2022-08-07T06:58:45;101537.47;;;19.70;50.47
58070;BME280;43863;52.256;21.048;2022-08-07T07:01:40;101540.16;;;19.83;50.50
58070;BME280;43863;52.256;21.048;2022-08-07T07:04:15;101537.44;;;20.10;49.71
58070;BME280;43863;52.256;21.048;2022-08-07T07:07:02;101539.66;;;20.33;48.63
58070;BME280;43863;52.256;21.048;2022-08-07T07:09:47;101546.06;;;20.45;47.53
58070;BME280;43863;52.256;21.048;2022-08-07T07:12:34;101544.41;;;20.44;47.61
58070;BME280;43863;52.256;21.048;2022-08-07T07:15:21;101532.53;;;20.58;47.21
58070;BME280;43863;52.256;21.048;2022-08-07T07:18:24;101538.78;;;20.52;47.36
58070;BME280;43863;52.256;21.048;2022-08-07T07:21:19;101539.34;;;20.74;46.58
58070;BME280;43863;52.256;21.048;2022-08-07T07:23:54;101539.56;;;20.66;46.04
58070;BME280;43863;52.256;21.048;2022-08-07T07:26:39;101531.72;;;20.58;45.01
58070;BME280;43863;52.256;21.048;2022-08-07T07:29:22;101531.91;;;20.63;44.95
58070;BME280;43863;52.256;21.048;2022-08-07T07:32:12;101536.25;;;20.71;45.12
58070;BME280;43863;52.256;21.048;2022-08-07T07:34:53;101530.72;;;20.90;45.04
58070;BME280;43863;52.256;21.048;2022-08-07T07:37:23;101522.31;;;21.12;44.97
58070;BME280;43863;52.256;21.048;2022-08-07T07:40:17;101522.69;;;21.16;44.16
58070;BME280;43863;52.256;21.048;2022-08-07T07:42:49;101525.41;;;21.16;44.04
58070;BME280;43863;52.256;21.048;2022-08-07T07:45:25;101526.97;;;21.30;43.96
58070;BME280;43863;52.256;21.048;2022-08-07T07:48:19;101513.44;;;21.37;44.39
58070;BME280;43863;52.256;21.048;2022-08-07T07:51:03;101521.38;;;21.56;44.56
58070;BME280;43863;52.256;21.048;2022-08-07T07:53:41;101515.13;;;21.81;44.42
58070;BME280;43863;52.256;21.048;2022-08-07T07:56:24;101517.13;;;22.11;43.82
58070;BME280;43863;52.256;21.048;2022-08-07T07:58:59;101514.00;;;22.32;43.52
58070;BME280;43863;52.256;21.048;2022-08-07T08:01:30;101517.75;;;22.49;42.78
58070;BME280;43863;52.256;21.048;2022-08-07T08:04:19;101525.34;;;22.41;42.19
58070;BME280;43863;52.256;21.048;2022-08-07T08:06:54;101516.09;;;22.30;42.38
58070;BME280;43863;52.256;21.048;2022-08-07T08:09:24;101519.72;;;22.42;42.70
58070;BME280;43863;52.256;21.048;2022-08-07T08:11:56;101515.75;;;22.57;41.77
58070;BME280;43863;52.256;21.048;2022-08-07T08:14:34;101520.00;;;22.34;40.80
58070;BME280;43863;52.256;21.048;2022-08-07T08:17:06;101508.13;;;22.17;41.34
58070;BME280;43863;52.256;21.048;2022-08-07T08:20:04;101513.69;;;22.22;41.46
58070;BME280;43863;52.256;21.048;2022-08-07T08:22:51;101513.81;;;22.27;41.88
58070;BME280;43863;52.256;21.048;2022-08-07T08:25:42;101500.84;;;22.17;42.05
58070;BME280;43863;52.256;21.048;2022-08-07T08:28:40;101507.56;;;22.45;41.70
58070;BME280;43863;52.256;21.048;2022-08-07T08:31:16;101517.91;;;22.55;41.10
58070;BME280;43863;52.256;21.048;2022-08-07T08:34:08;101516.16;;;22.60;40.58
58070;BME280;43863;52.256;21.048;2022-08-07T08:36:57;101513.91;;;22.57;40.57
58070;BME280;43863;52.256;21.048;2022-08-07T08:39:26;101512.28;;;22.68;39.73
58070;BME280;43863;52.256;21.048;2022-08-07T08:42:12;101513.00;;;22.63;39.18
58070;BME280;43863;52.256;21.048;2022-08-07T08:45:13;101517.22;;;22.41;38.92
58070;BME280;43863;52.256;21.048;2022-08-07T08:50:48;101514.28;;;22.24;38.89
58070;BME280;43863;52.256;21.048;2022-08-07T08:53:36;101512.41;;;22.43;38.75
58070;BME280;43863;52.256;21.048;2022-08-07T08:56:23;101521.34;;;22.62;39.07
58070;BME280;43863;52.256;21.048;2022-08-07T09:10:47;101505.03;;;22.99;39.67
58070;BME280;43863;52.256;21.048;2022-08-07T09:16:16;101507.19;;;23.08;38.82
58070;BME280;43863;52.256;21.048;2022-08-07T09:25:08;101500.22;;;22.82;38.39
58070;BME280;43863;52.256;21.048;2022-08-07T09:27:58;101493.00;;;22.94;38.31
58070;BME280;43863;52.256;21.048;2022-08-07T09:33:51;101495.75;;;23.06;38.34
58070;BME280;43863;52.256;21.048;2022-08-07T09:45:13;101489.75;;;22.86;37.48
58070;BME280;43863;52.256;21.048;2022-08-07T09:54:44;101464.25;;;22.45;37.57
58070;BME280;43863;52.256;21.048;2022-08-07T09:57:28;101470.78;;;22.56;37.13
58070;BME280;43863;52.256;21.048;2022-08-07T10:00:15;101472.88;;;22.72;36.90
58070;BME280;43863;52.256;21.048;2022-08-07T10:15:45;101467.75;;;23.36;34.55
58070;BME280;43863;52.256;21.048;2022-08-07T10:18:49;101459.75;;;23.41;34.66
58070;BME280;43863;52.256;21.048;2022-08-07T10:21:31;101451.59;;;23.53;34.71
58070;BME280;43863;52.256;21.048;2022-08-07T10:24:36;101457.03;;;23.65;34.21
58070;BME280;43863;52.256;21.048;2022-08-07T10:33:10;101451.97;;;23.80;33.38
58070;BME280;43863;52.256;21.048;2022-08-07T10:36:03;101453.88;;;23.79;32.87
58070;BME280;43863;52.256;21.048;2022-08-07T10:38:58;101451.28;;;23.73;33.14
58070;BME280;43863;52.256;21.048;2022-08-07T10:41:45;101446.09;;;23.71;32.72
58070;BME280;43863;52.256;21.048;2022-08-07T10:44:44;101456.94;;;23.83;32.58
58070;BME280;43863;52.256;21.048;2022-08-07T10:47:22;101447.16;;;23.70;33.25
58070;BME280;43863;52.256;21.048;2022-08-07T10:50:22;101454.22;;;23.83;33.79
58070;BME280;43863;52.256;21.048;2022-08-07T10:55:40;101443.34;;;23.95;33.40
58070;BME280;43863;52.256;21.048;2022-08-07T10:58:19;101441.47;;;23.72;32.77
58070;BME280;43863;52.256;21.048;2022-08-07T11:01:15;101439.84;;;23.71;33.10
58070;BME280;43863;52.256;21.048;2022-08-07T11:07:18;101442.31;;;23.72;32.36
58070;BME280;43863;52.256;21.048;2022-08-07T11:10:17;101435.22;;;23.48;32.57
58070;BME280;43863;52.256;21.048;2022-08-07T11:13:01;101443.69;;;23.51;31.90
58070;BME280;43863;52.256;21.048;2022-08-07T11:15:35;101438.03;;;23.53;32.05
58070;BME280;43863;52.256;21.048;2022-08-07T11:18:57;101430.38;;;23.50;32.49
58070;BME280;43863;52.256;21.048;2022-08-07T11:21:06;101426.72;;;23.56;32.59
58070;BME280;43863;52.256;21.048;2022-08-07T11:26:48;101433.56;;;23.58;32.17
58070;BME280;43863;52.256;21.048;2022-08-07T11:29:34;101425.31;;;23.42;32.28
58070;BME280;43863;52.256;21.048;2022-08-07T11:32:29;101418.25;;;23.52;32.78
58070;BME280;43863;52.256;21.048;2022-08-07T11:35:07;101418.13;;;23.71;32.69
58070;BME280;43863;52.256;21.048;2022-08-07T11:37:57;101422.84;;;23.87;32.75
58070;BME280;43863;52.256;21.048;2022-08-07T11:41:00;101421.19;;;23.86;31.95
58070;BME280;43863;52.256;21.048;2022-08-07T11:43:38;101417.97;;;23.66;31.49
58070;BME280;43863;52.256;21.048;2022-08-07T11:55:28;101396.63;;;23.81;31.75
58070;BME280;43863;52.256;21.048;2022-08-07T11:58:48;101403.13;;;23.80;31.73
58070;BME280;43863;52.256;21.048;2022-08-07T12:07:50;101407.28;;;23.71;32.26
58070;BME280;43863;52.256;21.048;2022-08-07T12:10:39;101388.41;;;23.76;32.35
58070;BME280;43863;52.256;21.048;2022-08-07T12:13:15;101393.69;;;23.82;32.38
58070;BME280;43863;52.256;21.048;2022-08-07T12:16:32;101381.66;;;23.90;32.72
58070;BME280;43863;52.256;21.048;2022-08-07T12:19:34;101386.13;;;23.96;32.57
58070;BME280;43863;52.256;21.048;2022-08-07T12:22:46;101379.44;;;24.16;33.30
58070;BME280;43863;52.256;21.048;2022-08-07T12:25:32;101383.00;;;24.45;33.12
58070;BME280;43863;52.256;21.048;2022-08-07T12:31:43;101374.56;;;24.92;32.66
58070;BME280;43863;52.256;21.048;2022-08-07T12:34:32;101373.19;;;24.89;32.70
58070;BME280;43863;52.256;21.048;2022-08-07T12:37:02;101379.94;;;24.87;32.44
58070;BME280;43863;52.256;21.048;2022-08-07T12:39:55;101370.38;;;24.84;32.44
58070;BME280;43863;52.256;21.048;2022-08-07T12:42:26;101378.38;;;24.91;32.19
58070;BME280;43863;52.256;21.048;2022-08-07T12:45:03;101374.81;;;24.73;31.88
58070;BME280;43863;52.256;21.048;2022-08-07T12:47:42;101375.22;;;24.65;31.98
58070;BME280;43863;52.256;21.048;2022-08-07T12:50:32;101370.03;;;24.81;32.30
58070;BME280;43863;52.256;21.048;2022-08-07T12:56:30;101361.97;;;24.69;32.58
58070;BME280;43863;52.256;21.048;2022-08-07T12:59:00;101364.84;;;24.62;32.78
58070;BME280;43863;52.256;21.048;2022-08-07T13:11:07;101356.38;;;23.90;34.52
58070;BME280;43863;52.256;21.048;2022-08-07T13:16:54;101349.28;;;24.29;34.37
58070;BME280;43863;52.256;21.048;2022-08-07T13:19:46;101348.38;;;24.69;33.67
58070;BME280;43863;52.256;21.048;2022-08-07T13:22:34;101347.31;;;25.04;33.33
58070;BME280;43863;52.256;21.048;2022-08-07T13:25:12;101334.84;;;25.41;33.65
58070;BME280;43863;52.256;21.048;2022-08-07T13:27:55;101342.63;;;25.55;32.86
58070;BME280;43863;52.256;21.048;2022-08-07T13:30:50;101341.22;;;25.52;32.57
58070;BME280;43863;52.256;21.048;2022-08-07T13:33:54;101342.22;;;25.24;32.49
58070;BME280;43863;52.256;21.048;2022-08-07T13:36:58;101343.75;;;24.69;32.81
58070;BME280;43863;52.256;21.048;2022-08-07T13:39:44;101342.47;;;24.26;33.33
58070;BME280;43863;52.256;21.048;2022-08-07T13:42:35;101339.69;;;24.10;33.41
58070;BME280;43863;52.256;21.048;2022-08-07T13:45:08;101335.81;;;24.05;33.88
58070;BME280;43863;52.256;21.048;2022-08-07T13:47:58;101339.06;;;23.91;33.87
58070;BME280;43863;52.256;21.048;2022-08-07T13:51:00;101329.88;;;23.80;34.36
58070;BME280;43863;52.256;21.048;2022-08-07T13:53:52;101325.22;;;23.92;34.21
58070;BME280;43863;52.256;21.048;2022-08-07T13:56:29;101325.03;;;24.11;34.56
58070;BME280;43863;52.256;21.048;2022-08-07T13:59:13;101318.19;;;24.37;34.84
58070;BME280;43863;52.256;21.048;2022-08-07T14:01:54;101321.06;;;24.59;34.27
58070;BME280;43863;52.256;21.048;2022-08-07T14:04:32;101316.84;;;24.68;33.81
58070;BME280;43863;52.256;21.048;2022-08-07T14:07:07;101309.59;;;24.90;33.50
58070;BME280;43863;52.256;21.048;2022-08-07T14:09:38;101307.09;;;25.23;33.41
58070;BME280;43863;52.256;21.048;2022-08-07T14:15:39;101303.13;;;26.23;32.02
58070;BME280;43863;52.256;21.048;2022-08-07T14:21:29;101294.25;;;27.03;30.84
58070;BME280;43863;52.256;21.048;2022-08-07T14:24:27;101300.44;;;27.35;30.75
58070;BME280;43863;52.256;21.048;2022-08-07T14:27:04;101299.28;;;27.21;31.06
58070;BME280;43863;52.256;21.048;2022-08-07T14:30:00;101287.88;;;26.87;30.81
58070;BME280;43863;52.256;21.048;2022-08-07T14:32:46;101283.81;;;26.52;30.32
58070;BME280;43863;52.256;21.048;2022-08-07T14:35:19;101285.38;;;26.16;31.42
58070;BME280;43863;52.256;21.048;2022-08-07T14:38:10;101281.78;;;26.10;32.14
58070;BME280;43863;52.256;21.048;2022-08-07T14:40:59;101285.06;;;26.12;32.17
58070;BME280;43863;52.256;21.048;2022-08-07T14:43:33;101289.22;;;26.20;32.21
58070;BME280;43863;52.256;21.048;2022-08-07T14:46:23;101284.28;;;26.17;32.50
58070;BME280;43863;52.256;21.048;2022-08-07T14:49:13;101273.53;;;26.05;32.29
58070;BME280;43863;52.256;21.048;2022-08-07T14:54:56;101264.97;;;25.69;32.74
58070;BME280;43863;52.256;21.048;2022-08-07T14:57:27;101264.09;;;25.63;32.81
58070;BME280;43863;52.256;21.048;2022-08-07T15:00:17;101263.69;;;25.50;32.96
58070;BME280;43863;52.256;21.048;2022-08-07T15:02:58;101263.47;;;25.34;32.96
58070;BME280;43863;52.256;21.048;2022-08-07T15:05:47;101259.00;;;25.23;33.44
58070;BME280;43863;52.256;21.048;2022-08-07T15:08:43;101258.22;;;25.11;33.34
58070;BME280;43863;52.256;21.048;2022-08-07T15:11:24;101254.81;;;24.98;33.45
58070;BME280;43863;52.256;21.048;2022-08-07T15:14:18;101258.03;;;24.95;33.40
58070;BME280;43863;52.256;21.048;2022-08-07T15:16:53;101250.63;;;24.91;33.43
58070;BME280;43863;52.256;21.048;2022-08-07T15:19:32;101248.25;;;24.78;33.83
58070;BME280;43863;52.256;21.048;2022-08-07T15:22:27;101250.75;;;24.62;33.99
58070;BME280;43863;52.256;21.048;2022-08-07T15:25:08;101245.44;;;24.39;34.26
58070;BME280;43863;52.256;21.048;2022-08-07T15:27:48;101244.78;;;24.15;34.45
58070;BME280;43863;52.256;21.048;2022-08-07T15:31:03;101242.69;;;23.88;35.19
58070;BME280;43863;52.256;21.048;2022-08-07T15:33:57;101236.38;;;23.71;35.52
58070;BME280;43863;52.256;21.048;2022-08-07T15:36:27;101240.19;;;23.58;35.63
58070;BME280;43863;52.256;21.048;2022-08-07T15:39:16;101237.75;;;23.33;35.91
58070;BME280;43863;52.256;21.048;2022-08-07T15:42:02;101244.44;;;23.42;35.96
58070;BME280;43863;52.256;21.048;2022-08-07T15:44:50;101238.00;;;23.43;36.06
58070;BME280;43863;52.256;21.048;2022-08-07T15:47:21;101234.50;;;23.31;36.14
58070;BME280;43863;52.256;21.048;2022-08-07T15:50:14;101234.22;;;23.32;35.98
58070;BME280;43863;52.256;21.048;2022-08-07T15:53:15;101232.13;;;23.23;35.99
58070;BME280;43863;52.256;21.048;2022-08-07T15:55:54;101231.53;;;23.21;36.09
58070;BME280;43863;52.256;21.048;2022-08-07T15:58:56;101232.97;;;23.23;36.14
58070;BME280;43863;52.256;21.048;2022-08-07T16:01:42;101231.41;;;23.27;36.18
58070;BME280;43863;52.256;21.048;2022-08-07T16:04:30;101227.75;;;23.22;36.18
58070;BME280;43863;52.256;21.048;2022-08-07T16:07:06;101227.41;;;23.18;36.32
58070;BME280;43863;52.256;21.048;2022-08-07T16:13:49;101216.09;;;23.21;36.70
58070;BME280;43863;52.256;21.048;2022-08-07T16:17:01;101214.97;;;23.05;37.18
58070;BME280;43863;52.256;21.048;2022-08-07T16:33:09;101218.28;;;23.07;37.57
58070;BME280;43863;52.256;21.048;2022-08-07T16:36:05;101215.44;;;23.02;37.38
58070;BME280;43863;52.256;21.048;2022-08-07T16:48:35;101214.38;;;23.03;37.54
58070;BME280;43863;52.256;21.048;2022-08-07T16:55:00;101219.78;;;22.91;37.39
58070;BME280;43863;52.256;21.048;2022-08-07T16:58:01;101218.94;;;22.91;37.48
58070;BME280;43863;52.256;21.048;2022-08-07T17:00:41;101213.78;;;22.89;37.74
58070;BME280;43863;52.256;21.048;2022-08-07T17:03:27;101216.59;;;22.83;37.58
58070;BME280;43863;52.256;21.048;2022-08-07T17:18:28;101230.53;;;22.63;37.70
58070;BME280;43863;52.256;21.048;2022-08-07T17:20:56;101231.34;;;22.52;37.82
58070;BME280;43863;52.256;21.048;2022-08-07T17:23:38;101237.31;;;22.54;37.98
58070;BME280;43863;52.256;21.048;2022-08-07T17:29:05;101240.75;;;22.49;38.17